sensor_id;sensor_type;location;lat;lon;timestamp;P1;durP1;ratioP1;P2;durP2;ratioP2
16824;SDS011;8529;48.108;-1.706;2022-10-16T00:01:05;5.05;;;2.63;;
16824;SDS011;8529;48.108;-1.706;2022-10-16T00:03:33;3.63;;;2.22;;
16824;SDS011;8529;48.108;-1.706;2022-10-16T00:06:00;4.97;;;2.10;;
16824;SDS011;8529;48.108;-1.706;2022-10-16T00:08:27;2.55;;;2.05;;
16824;SDS011;8529;48.108;-1.706;2022-10-16T00:10:58;8.07;;;3.38;;
16824;SDS011;8529;48.108;-1.706;2022-10-16T00:13:25;4.38;;;2.47;;
16824;SDS011;8529;48.108;-1.706;2022-10-16T00:15:54;8.57;;;2.50;;
16824;SDS011;8529;48.108;-1.706;2022-10-16T00:18:23;6.55;;;3.17;;
16824;SDS011;8529;48.108;-1.706;2022-10-16T00:20:50;4.72;;;2.90;;
16824;SDS011;8529;48.108;-1.706;2022-10-16T00:23:17;4.47;;;3.15;;
16824;SDS011;8529;48.108;-1.706;2022-10-16T00:25:45;7.05;;;3.63;;
16824;SDS011;8529;48.108;-1.706;2022-10-16T00:28:21;4.90;;;3.40;;
16824;SDS011;8529;48.108;-1.706;2022-10-16T00:30:48;7.75;;;3.42;;
16824;SDS011;8529;48.108;-1.706;2022-10-16T00:33:15;5.97;;;3.53;;
16824;SDS011;8529;48.108;-1.706;2022-10-16T00:35:43;4.75;;;3.35;;
16824;SDS011;8529;48.108;-1.706;2022-10-16T00:38:10;6.40;;;3.88;;
16824;SDS011;8529;48.108;-1.706;2022-10-16T00:40:37;6.10;;;3.83;;
16824;SDS011;8529;48.108;-1.706;2022-10-16T00:43:07;8.80;;;3.85;;
16824;SDS011;8529;48.108;-1.706;2022-10-16T00:45:38;6.90;;;4.40;;
16824;SDS011;8529;48.108;-1.706;2022-10-16T00:48:06;7.30;;;3.50;;
16824;SDS011;8529;48.108;-1.706;2022-10-16T00:50:36;9.75;;;4.47;;
16824;SDS011;8529;48.108;-1.706;2022-10-16T00:53:06;8.65;;;4.70;;
16824;SDS011;8529;48.108;-1.706;2022-10-16T00:55:33;7.93;;;4.20;;
16824;SDS011;8529;48.108;-1.706;2022-10-16T00:58:00;6.70;;;4.75;;
16824;SDS011;8529;48.108;-1.706;2022-10-16T01:00:26;12.73;;;5.13;;
16824;SDS011;8529;48.108;-1.706;2022-10-16T01:02:54;7.13;;;4.13;;
16824;SDS011;8529;48.108;-1.706;2022-10-16T01:05:21;8.60;;;4.28;;
16824;SDS011;8529;48.108;-1.706;2022-10-16T01:07:51;8.25;;;4.47;;
16824;SDS011;8529;48.108;-1.706;2022-10-16T01:10:26;7.07;;;4.35;;
16824;SDS011;8529;48.108;-1.706;2022-10-16T01:12:59;8.18;;;4.88;;
16824;SDS011;8529;48.108;-1.706;2022-10-16T01:15:29;6.88;;;3.90;;
16824;SDS011;8529;48.108;-1.706;2022-10-16T01:18:00;8.07;;;4.88;;
16824;SDS011;8529;48.108;-1.706;2022-10-16T01:20:32;9.48;;;4.93;;
16824;SDS011;8529;48.108;-1.706;2022-10-16T01:23:05;7.82;;;4.30;;
16824;SDS011;8529;48.108;-1.706;2022-10-16T01:28:47;7.95;;;4.65;;
16824;SDS011;8529;48.108;-1.706;2022-10-16T01:31:19;9.35;;;4.95;;
16824;SDS011;8529;48.108;-1.706;2022-10-16T01:33:51;7.40;;;4.10;;
16824;SDS011;8529;48.108;-1.706;2022-10-16T01:36:26;8.68;;;4.90;;
16824;SDS011;8529;48.108;-1.706;2022-10-16T01:38:59;8.40;;;3.97;;
16824;SDS011;8529;48.108;-1.706;2022-10-16T01:41:30;8.70;;;4.38;;
16824;SDS011;8529;48.108;-1.706;2022-10-16T01:44:02;9.35;;;4.65;;
16824;SDS011;8529;48.108;-1.706;2022-10-16T01:46:31;6.88;;;4.25;;
16824;SDS011;8529;48.108;-1.706;2022-10-16T01:48:59;9.23;;;4.80;;
16824;SDS011;8529;48.108;-1.706;2022-10-16T01:51:28;6.85;;;4.07;;
16824;SDS011;8529;48.108;-1.706;2022-10-16T01:53:56;9.43;;;5.13;;
16824;SDS011;8529;48.108;-1.706;2022-10-16T01:56:26;8.07;;;4.88;;
16824;SDS011;8529;48.108;-1.706;2022-10-16T01:58:55;8.50;;;4.32;;
16824;SDS011;8529;48.108;-1.706;2022-10-16T02:01:29;7.55;;;3.70;;
16824;SDS011;8529;48.108;-1.706;2022-10-16T02:03:59;10.35;;;4.53;;
16824;SDS011;8529;48.108;-1.706;2022-10-16T02:06:31;10.27;;;4.65;;
16824;SDS011;8529;48.108;-1.706;2022-10-16T02:08:59;9.23;;;4.43;;
16824;SDS011;8529;48.108;-1.706;2022-10-16T02:11:26;6.80;;;3.80;;
16824;SDS011;8529;48.108;-1.706;2022-10-16T02:13:54;7.00;;;4.43;;
16824;SDS011;8529;48.108;-1.706;2022-10-16T02:16:32;12.00;;;4.13;;
16824;SDS011;8529;48.108;-1.706;2022-10-16T02:19:01;9.82;;;4.38;;
16824;SDS011;8529;48.108;-1.706;2022-10-16T02:21:29;7.15;;;4.15;;
16824;SDS011;8529;48.108;-1.706;2022-10-16T02:24:01;7.35;;;3.78;;
16824;SDS011;8529;48.108;-1.706;2022-10-16T02:26:35;8.25;;;4.38;;
16824;SDS011;8529;48.108;-1.706;2022-10-16T02:29:08;8.45;;;4.00;;
16824;SDS011;8529;48.108;-1.706;2022-10-16T02:31:41;9.48;;;4.32;;
16824;SDS011;8529;48.108;-1.706;2022-10-16T02:34:12;6.88;;;3.70;;
16824;SDS011;8529;48.108;-1.706;2022-10-16T02:36:41;7.90;;;3.95;;
16824;SDS011;8529;48.108;-1.706;2022-10-16T02:39:09;8.73;;;3.60;;
16824;SDS011;8529;48.108;-1.706;2022-10-16T02:41:36;8.90;;;3.85;;
16824;SDS011;8529;48.108;-1.706;2022-10-16T02:44:04;6.45;;;3.97;;
16824;SDS011;8529;48.108;-1.706;2022-10-16T02:46:31;6.75;;;3.40;;
16824;SDS011;8529;48.108;-1.706;2022-10-16T02:48:59;8.63;;;4.07;;
16824;SDS011;8529;48.108;-1.706;2022-10-16T02:51:26;11.02;;;4.15;;
16824;SDS011;8529;48.108;-1.706;2022-10-16T02:53:53;6.30;;;4.07;;
16824;SDS011;8529;48.108;-1.706;2022-10-16T02:56:21;8.40;;;3.78;;
16824;SDS011;8529;48.108;-1.706;2022-10-16T02:58:48;10.18;;;4.00;;
16824;SDS011;8529;48.108;-1.706;2022-10-16T03:01:15;7.38;;;4.00;;
16824;SDS011;8529;48.108;-1.706;2022-10-16T03:03:42;5.82;;;3.80;;
16824;SDS011;8529;48.108;-1.706;2022-10-16T03:06:10;7.15;;;3.58;;
16824;SDS011;8529;48.108;-1.706;2022-10-16T03:08:37;9.45;;;3.92;;
16824;SDS011;8529;48.108;-1.706;2022-10-16T03:11:04;7.40;;;4.03;;
16824;SDS011;8529;48.108;-1.706;2022-10-16T03:13:31;7.60;;;3.70;;
16824;SDS011;8529;48.108;-1.706;2022-10-16T03:15:58;8.88;;;3.88;;
16824;SDS011;8529;48.108;-1.706;2022-10-16T03:18:25;10.68;;;4.00;;
16824;SDS011;8529;48.108;-1.706;2022-10-16T03:20:52;6.82;;;3.47;;
16824;SDS011;8529;48.108;-1.706;2022-10-16T03:23:20;9.23;;;4.28;;
16824;SDS011;8529;48.108;-1.706;2022-10-16T03:25:47;7.82;;;4.32;;
16824;SDS011;8529;48.108;-1.706;2022-10-16T03:28:14;9.48;;;4.60;;
16824;SDS011;8529;48.108;-1.706;2022-10-16T03:30:42;12.07;;;5.05;;
16824;SDS011;8529;48.108;-1.706;2022-10-16T03:33:09;7.97;;;4.57;;
16824;SDS011;8529;48.108;-1.706;2022-10-16T03:35:36;10.07;;;4.35;;
16824;SDS011;8529;48.108;-1.706;2022-10-16T03:38:03;8.75;;;4.72;;
16824;SDS011;8529;48.108;-1.706;2022-10-16T03:40:31;9.35;;;4.50;;
16824;SDS011;8529;48.108;-1.706;2022-10-16T03:42:58;11.35;;;4.35;;
16824;SDS011;8529;48.108;-1.706;2022-10-16T03:45:26;8.77;;;4.35;;
16824;SDS011;8529;48.108;-1.706;2022-10-16T03:47:53;16.33;;;4.35;;
16824;SDS011;8529;48.108;-1.706;2022-10-16T03:50:20;9.73;;;4.30;;
16824;SDS011;8529;48.108;-1.706;2022-10-16T03:52:47;8.55;;;4.53;;
16824;SDS011;8529;48.108;-1.706;2022-10-16T03:55:13;8.95;;;4.38;;
16824;SDS011;8529;48.108;-1.706;2022-10-16T03:57:42;9.15;;;4.50;;
16824;SDS011;8529;48.108;-1.706;2022-10-16T04:00:09;9.20;;;4.85;;
16824;SDS011;8529;48.108;-1.706;2022-10-16T04:02:37;10.73;;;5.35;;
16824;SDS011;8529;48.108;-1.706;2022-10-16T04:05:04;10.73;;;4.75;;
16824;SDS011;8529;48.108;-1.706;2022-10-16T04:07:32;7.00;;;4.10;;
16824;SDS011;8529;48.108;-1.706;2022-10-16T04:09:58;7.95;;;4.00;;
16824;SDS011;8529;48.108;-1.706;2022-10-16T04:12:26;10.30;;;4.63;;
16824;SDS011;8529;48.108;-1.706;2022-10-16T04:14:54;9.23;;;4.22;;
16824;SDS011;8529;48.108;-1.706;2022-10-16T04:17:21;8.35;;;4.45;;
16824;SDS011;8529;48.108;-1.706;2022-10-16T04:19:48;9.98;;;4.75;;
16824;SDS011;8529;48.108;-1.706;2022-10-16T04:22:15;9.00;;;5.13;;
16824;SDS011;8529;48.108;-1.706;2022-10-16T04:24:42;10.57;;;4.68;;
16824;SDS011;8529;48.108;-1.706;2022-10-16T04:27:08;10.38;;;4.70;;
16824;SDS011;8529;48.108;-1.706;2022-10-16T04:29:35;9.68;;;4.65;;
16824;SDS011;8529;48.108;-1.706;2022-10-16T04:32:04;9.98;;;4.82;;
16824;SDS011;8529;48.108;-1.706;2022-10-16T04:34:31;11.10;;;5.40;;
16824;SDS011;8529;48.108;-1.706;2022-10-16T04:36:57;9.65;;;4.53;;
16824;SDS011;8529;48.108;-1.706;2022-10-16T04:39:24;11.57;;;4.40;;
16824;SDS011;8529;48.108;-1.706;2022-10-16T04:41:51;13.63;;;5.20;;
16824;SDS011;8529;48.108;-1.706;2022-10-16T04:44:18;10.80;;;4.50;;
16824;SDS011;8529;48.108;-1.706;2022-10-16T04:46:45;10.18;;;4.75;;
16824;SDS011;8529;48.108;-1.706;2022-10-16T04:49:13;10.55;;;4.90;;
16824;SDS011;8529;48.108;-1.706;2022-10-16T04:51:40;11.13;;;4.88;;
16824;SDS011;8529;48.108;-1.706;2022-10-16T04:54:08;11.85;;;4.82;;
16824;SDS011;8529;48.108;-1.706;2022-10-16T04:56:35;12.75;;;4.80;;
16824;SDS011;8529;48.108;-1.706;2022-10-16T04:59:08;12.20;;;5.25;;
16824;SDS011;8529;48.108;-1.706;2022-10-16T05:01:35;10.70;;;5.30;;
16824;SDS011;8529;48.108;-1.706;2022-10-16T05:04:02;9.60;;;5.47;;
16824;SDS011;8529;48.108;-1.706;2022-10-16T05:06:30;10.98;;;4.70;;
16824;SDS011;8529;48.108;-1.706;2022-10-16T05:08:57;11.40;;;5.47;;
16824;SDS011;8529;48.108;-1.706;2022-10-16T05:11:24;8.95;;;5.00;;
16824;SDS011;8529;48.108;-1.706;2022-10-16T05:13:51;13.98;;;5.28;;
16824;SDS011;8529;48.108;-1.706;2022-10-16T05:16:18;15.38;;;6.93;;
16824;SDS011;8529;48.108;-1.706;2022-10-16T05:18:45;11.77;;;5.78;;
16824;SDS011;8529;48.108;-1.706;2022-10-16T05:21:12;13.63;;;6.13;;
16824;SDS011;8529;48.108;-1.706;2022-10-16T05:23:40;12.93;;;5.85;;
16824;SDS011;8529;48.108;-1.706;2022-10-16T05:26:07;16.80;;;6.03;;
16824;SDS011;8529;48.108;-1.706;2022-10-16T05:28:34;15.27;;;5.95;;
16824;SDS011;8529;48.108;-1.706;2022-10-16T05:31:04;10.63;;;5.72;;
16824;SDS011;8529;48.108;-1.706;2022-10-16T05:33:31;10.52;;;5.47;;
16824;SDS011;8529;48.108;-1.706;2022-10-16T05:36:00;16.67;;;5.95;;
16824;SDS011;8529;48.108;-1.706;2022-10-16T05:38:28;16.00;;;6.22;;
16824;SDS011;8529;48.108;-1.706;2022-10-16T05:40:56;13.35;;;6.00;;
16824;SDS011;8529;48.108;-1.706;2022-10-16T05:43:23;14.55;;;6.00;;
16824;SDS011;8529;48.108;-1.706;2022-10-16T05:45:53;13.40;;;6.15;;
16824;SDS011;8529;48.108;-1.706;2022-10-16T05:48:21;15.15;;;6.68;;
16824;SDS011;8529;48.108;-1.706;2022-10-16T05:50:48;14.73;;;6.45;;
16824;SDS011;8529;48.108;-1.706;2022-10-16T05:53:22;12.85;;;6.43;;
16824;SDS011;8529;48.108;-1.706;2022-10-16T05:55:51;17.88;;;7.72;;
16824;SDS011;8529;48.108;-1.706;2022-10-16T05:58:20;19.58;;;7.20;;
16824;SDS011;8529;48.108;-1.706;2022-10-16T06:00:52;15.15;;;6.20;;
16824;SDS011;8529;48.108;-1.706;2022-10-16T06:03:20;15.80;;;7.03;;
16824;SDS011;8529;48.108;-1.706;2022-10-16T06:05:47;21.25;;;7.53;;
16824;SDS011;8529;48.108;-1.706;2022-10-16T06:08:14;12.07;;;6.93;;
16824;SDS011;8529;48.108;-1.706;2022-10-16T06:10:41;16.05;;;7.53;;
16824;SDS011;8529;48.108;-1.706;2022-10-16T06:13:08;17.27;;;7.70;;
16824;SDS011;8529;48.108;-1.706;2022-10-16T06:15:37;15.48;;;6.95;;
16824;SDS011;8529;48.108;-1.706;2022-10-16T06:18:04;15.95;;;7.22;;
16824;SDS011;8529;48.108;-1.706;2022-10-16T06:20:31;16.77;;;7.35;;
16824;SDS011;8529;48.108;-1.706;2022-10-16T06:22:58;16.90;;;7.28;;
16824;SDS011;8529;48.108;-1.706;2022-10-16T06:25:25;17.05;;;7.35;;
16824;SDS011;8529;48.108;-1.706;2022-10-16T06:27:52;18.73;;;7.60;;
16824;SDS011;8529;48.108;-1.706;2022-10-16T06:30:19;19.55;;;8.15;;
16824;SDS011;8529;48.108;-1.706;2022-10-16T06:32:47;18.42;;;7.60;;
16824;SDS011;8529;48.108;-1.706;2022-10-16T06:35:14;18.13;;;8.30;;
16824;SDS011;8529;48.108;-1.706;2022-10-16T06:37:40;19.60;;;8.13;;
16824;SDS011;8529;48.108;-1.706;2022-10-16T06:40:08;17.98;;;7.18;;
16824;SDS011;8529;48.108;-1.706;2022-10-16T06:42:34;18.95;;;7.35;;
16824;SDS011;8529;48.108;-1.706;2022-10-16T06:45:01;21.77;;;8.38;;
16824;SDS011;8529;48.108;-1.706;2022-10-16T06:47:29;19.75;;;8.32;;
16824;SDS011;8529;48.108;-1.706;2022-10-16T06:49:57;19.48;;;8.13;;
16824;SDS011;8529;48.108;-1.706;2022-10-16T06:52:24;19.98;;;8.00;;
16824;SDS011;8529;48.108;-1.706;2022-10-16T06:54:53;23.38;;;9.50;;
16824;SDS011;8529;48.108;-1.706;2022-10-16T06:57:20;23.20;;;7.60;;
16824;SDS011;8529;48.108;-1.706;2022-10-16T06:59:47;23.42;;;8.43;;
16824;SDS011;8529;48.108;-1.706;2022-10-16T07:02:14;21.85;;;8.65;;
16824;SDS011;8529;48.108;-1.706;2022-10-16T07:04:41;17.98;;;7.93;;
16824;SDS011;8529;48.108;-1.706;2022-10-16T07:07:09;17.48;;;7.10;;
16824;SDS011;8529;48.108;-1.706;2022-10-16T07:09:36;13.48;;;6.68;;
16824;SDS011;8529;48.108;-1.706;2022-10-16T07:12:03;17.23;;;6.95;;
16824;SDS011;8529;48.108;-1.706;2022-10-16T07:14:30;12.98;;;5.97;;
16824;SDS011;8529;48.108;-1.706;2022-10-16T07:16:57;11.02;;;5.10;;
16824;SDS011;8529;48.108;-1.706;2022-10-16T07:19:24;12.02;;;5.47;;
16824;SDS011;8529;48.108;-1.706;2022-10-16T07:21:51;13.57;;;5.95;;
16824;SDS011;8529;48.108;-1.706;2022-10-16T07:24:19;7.25;;;4.22;;
16824;SDS011;8529;48.108;-1.706;2022-10-16T07:26:46;8.27;;;4.50;;
16824;SDS011;8529;48.108;-1.706;2022-10-16T07:29:14;7.68;;;4.05;;
16824;SDS011;8529;48.108;-1.706;2022-10-16T07:31:43;9.15;;;3.78;;
16824;SDS011;8529;48.108;-1.706;2022-10-16T07:34:10;7.82;;;4.68;;
16824;SDS011;8529;48.108;-1.706;2022-10-16T07:36:38;8.13;;;3.80;;
16824;SDS011;8529;48.108;-1.706;2022-10-16T07:39:05;5.70;;;3.20;;
16824;SDS011;8529;48.108;-1.706;2022-10-16T07:41:34;5.35;;;3.20;;
16824;SDS011;8529;48.108;-1.706;2022-10-16T07:44:02;5.45;;;2.70;;
16824;SDS011;8529;48.108;-1.706;2022-10-16T07:46:30;4.30;;;2.30;;
16824;SDS011;8529;48.108;-1.706;2022-10-16T07:48:58;6.80;;;2.97;;
16824;SDS011;8529;48.108;-1.706;2022-10-16T07:51:25;5.93;;;2.90;;
16824;SDS011;8529;48.108;-1.706;2022-10-16T07:53:53;6.43;;;2.90;;
16824;SDS011;8529;48.108;-1.706;2022-10-16T07:56:20;3.65;;;2.05;;
16824;SDS011;8529;48.108;-1.706;2022-10-16T07:58:49;2.92;;;1.85;;
16824;SDS011;8529;48.108;-1.706;2022-10-16T08:01:16;4.40;;;1.75;;
16824;SDS011;8529;48.108;-1.706;2022-10-16T08:03:45;3.38;;;1.50;;
16824;SDS011;8529;48.108;-1.706;2022-10-16T08:06:13;3.00;;;1.73;;
16824;SDS011;8529;48.108;-1.706;2022-10-16T08:08:40;4.40;;;1.77;;
16824;SDS011;8529;48.108;-1.706;2022-10-16T08:11:08;4.15;;;1.52;;
16824;SDS011;8529;48.108;-1.706;2022-10-16T08:13:35;3.30;;;1.48;;
16824;SDS011;8529;48.108;-1.706;2022-10-16T08:16:04;5.72;;;1.70;;
16824;SDS011;8529;48.108;-1.706;2022-10-16T08:18:33;3.55;;;1.55;;
16824;SDS011;8529;48.108;-1.706;2022-10-16T08:21:00;3.92;;;1.70;;
16824;SDS011;8529;48.108;-1.706;2022-10-16T08:23:28;2.33;;;1.50;;
16824;SDS011;8529;48.108;-1.706;2022-10-16T08:25:55;2.38;;;1.58;;
16824;SDS011;8529;48.108;-1.706;2022-10-16T08:28:27;1.52;;;1.30;;
16824;SDS011;8529;48.108;-1.706;2022-10-16T08:30:54;2.45;;;1.70;;
16824;SDS011;8529;48.108;-1.706;2022-10-16T08:33:23;3.50;;;1.40;;
16824;SDS011;8529;48.108;-1.706;2022-10-16T08:35:50;3.30;;;1.80;;
16824;SDS011;8529;48.108;-1.706;2022-10-16T08:38:18;3.45;;;1.90;;
16824;SDS011;8529;48.108;-1.706;2022-10-16T08:40:45;1.45;;;1.35;;
16824;SDS011;8529;48.108;-1.706;2022-10-16T08:46:11;3.25;;;1.33;;
16824;SDS011;8529;48.108;-1.706;2022-10-16T08:48:53;7.43;;;1.50;;
16824;SDS011;8529;48.108;-1.706;2022-10-16T08:51:23;2.85;;;1.10;;
16824;SDS011;8529;48.108;-1.706;2022-10-16T08:53:53;2.80;;;1.40;;
16824;SDS011;8529;48.108;-1.706;2022-10-16T08:56:22;1.63;;;1.10;;
16824;SDS011;8529;48.108;-1.706;2022-10-16T08:58:49;5.28;;;1.33;;
16824;SDS011;8529;48.108;-1.706;2022-10-16T09:01:18;1.95;;;1.10;;
16824;SDS011;8529;48.108;-1.706;2022-10-16T09:03:59;1.80;;;1.10;;
16824;SDS011;8529;48.108;-1.706;2022-10-16T09:06:45;3.67;;;1.42;;
16824;SDS011;8529;48.108;-1.706;2022-10-16T09:09:39;2.45;;;1.00;;
16824;SDS011;8529;48.108;-1.706;2022-10-16T09:12:17;1.48;;;0.80;;
16824;SDS011;8529;48.108;-1.706;2022-10-16T09:14:52;1.55;;;0.95;;
16824;SDS011;8529;48.108;-1.706;2022-10-16T09:17:37;1.58;;;0.60;;
16824;SDS011;8529;48.108;-1.706;2022-10-16T09:20:18;1.55;;;0.77;;
16824;SDS011;8529;48.108;-1.706;2022-10-16T09:22:53;2.47;;;0.90;;
16824;SDS011;8529;48.108;-1.706;2022-10-16T09:25:25;2.72;;;0.90;;
16824;SDS011;8529;48.108;-1.706;2022-10-16T09:27:53;3.08;;;0.73;;
16824;SDS011;8529;48.108;-1.706;2022-10-16T09:30:20;2.95;;;0.75;;
16824;SDS011;8529;48.108;-1.706;2022-10-16T09:32:49;2.15;;;0.88;;
16824;SDS011;8529;48.108;-1.706;2022-10-16T09:35:20;1.80;;;1.20;;
16824;SDS011;8529;48.108;-1.706;2022-10-16T09:37:52;1.40;;;0.98;;
16824;SDS011;8529;48.108;-1.706;2022-10-16T09:40:25;1.88;;;0.70;;
16824;SDS011;8529;48.108;-1.706;2022-10-16T09:42:56;2.50;;;0.70;;
16824;SDS011;8529;48.108;-1.706;2022-10-16T09:45:28;3.05;;;0.73;;
16824;SDS011;8529;48.108;-1.706;2022-10-16T09:47:55;1.52;;;0.80;;
16824;SDS011;8529;48.108;-1.706;2022-10-16T09:50:25;0.90;;;0.57;;
16824;SDS011;8529;48.108;-1.706;2022-10-16T09:53:03;1.63;;;0.50;;
16824;SDS011;8529;48.108;-1.706;2022-10-16T09:55:31;2.45;;;1.00;;
16824;SDS011;8529;48.108;-1.706;2022-10-16T09:57:58;3.38;;;1.23;;
16824;SDS011;8529;48.108;-1.706;2022-10-16T10:00:25;4.90;;;1.13;;
16824;SDS011;8529;48.108;-1.706;2022-10-16T10:02:52;2.67;;;0.60;;
16824;SDS011;8529;48.108;-1.706;2022-10-16T10:05:21;2.22;;;0.77;;
16824;SDS011;8529;48.108;-1.706;2022-10-16T10:07:55;1.23;;;0.80;;
16824;SDS011;8529;48.108;-1.706;2022-10-16T10:10:24;3.83;;;1.42;;
16824;SDS011;8529;48.108;-1.706;2022-10-16T10:12:53;3.08;;;0.90;;
16824;SDS011;8529;48.108;-1.706;2022-10-16T10:15:20;2.85;;;0.90;;
16824;SDS011;8529;48.108;-1.706;2022-10-16T10:17:49;2.95;;;0.57;;
16824;SDS011;8529;48.108;-1.706;2022-10-16T10:20:25;1.80;;;0.90;;
16824;SDS011;8529;48.108;-1.706;2022-10-16T10:22:55;1.65;;;1.00;;
16824;SDS011;8529;48.108;-1.706;2022-10-16T10:25:25;1.38;;;0.70;;
16824;SDS011;8529;48.108;-1.706;2022-10-16T10:28:18;1.25;;;0.70;;
16824;SDS011;8529;48.108;-1.706;2022-10-16T10:30:55;2.88;;;0.80;;
16824;SDS011;8529;48.108;-1.706;2022-10-16T10:33:28;2.97;;;0.85;;
16824;SDS011;8529;48.108;-1.706;2022-10-16T10:36:07;2.50;;;1.08;;
16824;SDS011;8529;48.108;-1.706;2022-10-16T10:38:47;2.78;;;0.98;;
16824;SDS011;8529;48.108;-1.706;2022-10-16T10:41:25;1.75;;;0.88;;
16824;SDS011;8529;48.108;-1.706;2022-10-16T10:44:11;3.17;;;0.82;;
16824;SDS011;8529;48.108;-1.706;2022-10-16T10:46:44;3.22;;;0.85;;
16824;SDS011;8529;48.108;-1.706;2022-10-16T10:49:19;2.53;;;0.80;;
16824;SDS011;8529;48.108;-1.706;2022-10-16T10:52:02;2.33;;;0.70;;
16824;SDS011;8529;48.108;-1.706;2022-10-16T10:54:41;1.27;;;1.00;;
16824;SDS011;8529;48.108;-1.706;2022-10-16T10:57:19;2.85;;;1.23;;
16824;SDS011;8529;48.108;-1.706;2022-10-16T11:00:00;4.50;;;1.20;;
16824;SDS011;8529;48.108;-1.706;2022-10-16T11:02:36;4.45;;;1.00;;
16824;SDS011;8529;48.108;-1.706;2022-10-16T11:05:22;4.75;;;1.15;;
16824;SDS011;8529;48.108;-1.706;2022-10-16T11:08:13;3.50;;;1.52;;
16824;SDS011;8529;48.108;-1.706;2022-10-16T11:10:49;2.90;;;1.67;;
16824;SDS011;8529;48.108;-1.706;2022-10-16T11:13:21;1.63;;;1.10;;
16824;SDS011;8529;48.108;-1.706;2022-10-16T11:15:57;3.40;;;1.13;;
16824;SDS011;8529;48.108;-1.706;2022-10-16T11:18:29;6.28;;;1.38;;
16824;SDS011;8529;48.108;-1.706;2022-10-16T11:21:04;3.45;;;1.33;;
16824;SDS011;8529;48.108;-1.706;2022-10-16T11:23:35;3.85;;;1.33;;
16824;SDS011;8529;48.108;-1.706;2022-10-16T11:26:08;3.03;;;1.02;;
16824;SDS011;8529;48.108;-1.706;2022-10-16T11:28:42;5.68;;;1.23;;
16824;SDS011;8529;48.108;-1.706;2022-10-16T11:31:13;9.23;;;2.55;;
16824;SDS011;8529;48.108;-1.706;2022-10-16T11:33:46;6.78;;;1.67;;
16824;SDS011;8529;48.108;-1.706;2022-10-16T11:36:18;5.43;;;1.50;;
16824;SDS011;8529;48.108;-1.706;2022-10-16T11:38:50;5.03;;;1.83;;
16824;SDS011;8529;48.108;-1.706;2022-10-16T11:41:24;7.53;;;3.10;;
16824;SDS011;8529;48.108;-1.706;2022-10-16T11:44:06;4.93;;;2.85;;
16824;SDS011;8529;48.108;-1.706;2022-10-16T11:46:40;6.55;;;3.05;;
16824;SDS011;8529;48.108;-1.706;2022-10-16T11:49:15;6.78;;;2.58;;
16824;SDS011;8529;48.108;-1.706;2022-10-16T11:51:48;4.80;;;3.00;;
16824;SDS011;8529;48.108;-1.706;2022-10-16T11:54:27;3.85;;;2.22;;
16824;SDS011;8529;48.108;-1.706;2022-10-16T11:57:01;7.82;;;3.50;;
16824;SDS011;8529;48.108;-1.706;2022-10-16T11:59:36;6.88;;;2.88;;
16824;SDS011;8529;48.108;-1.706;2022-10-16T12:02:20;7.28;;;2.60;;
16824;SDS011;8529;48.108;-1.706;2022-10-16T12:05:00;5.72;;;2.40;;
16824;SDS011;8529;48.108;-1.706;2022-10-16T12:07:34;5.38;;;2.08;;
16824;SDS011;8529;48.108;-1.706;2022-10-16T12:10:10;4.97;;;3.33;;
16824;SDS011;8529;48.108;-1.706;2022-10-16T12:12:46;2.28;;;1.88;;
16824;SDS011;8529;48.108;-1.706;2022-10-16T12:15:20;5.53;;;2.20;;
16824;SDS011;8529;48.108;-1.706;2022-10-16T12:17:50;4.53;;;2.65;;
16824;SDS011;8529;48.108;-1.706;2022-10-16T12:20:20;4.28;;;2.78;;
16824;SDS011;8529;48.108;-1.706;2022-10-16T12:22:51;4.10;;;2.67;;
16824;SDS011;8529;48.108;-1.706;2022-10-16T12:25:21;4.85;;;2.08;;
16824;SDS011;8529;48.108;-1.706;2022-10-16T12:28:01;3.05;;;1.95;;
16824;SDS011;8529;48.108;-1.706;2022-10-16T12:30:31;7.03;;;2.30;;
16824;SDS011;8529;48.108;-1.706;2022-10-16T12:33:01;5.05;;;2.30;;
16824;SDS011;8529;48.108;-1.706;2022-10-16T12:35:30;3.80;;;2.90;;
16824;SDS011;8529;48.108;-1.706;2022-10-16T12:38:15;2.03;;;1.75;;
16824;SDS011;8529;48.108;-1.706;2022-10-16T12:40:44;3.92;;;2.50;;
16824;SDS011;8529;48.108;-1.706;2022-10-16T12:43:34;2.70;;;2.40;;
16824;SDS011;8529;48.108;-1.706;2022-10-16T12:46:04;6.97;;;2.65;;
16824;SDS011;8529;48.108;-1.706;2022-10-16T12:48:46;2.65;;;2.17;;
16824;SDS011;8529;48.108;-1.706;2022-10-16T12:51:21;3.65;;;2.47;;
16824;SDS011;8529;48.108;-1.706;2022-10-16T12:53:57;5.88;;;2.83;;
16824;SDS011;8529;48.108;-1.706;2022-10-16T12:56:26;3.47;;;2.35;;
16824;SDS011;8529;48.108;-1.706;2022-10-16T12:59:04;3.72;;;2.50;;
16824;SDS011;8529;48.108;-1.706;2022-10-16T13:01:41;4.38;;;2.53;;
16824;SDS011;8529;48.108;-1.706;2022-10-16T13:07:20;3.50;;;2.53;;
16824;SDS011;8529;48.108;-1.706;2022-10-16T13:10:02;4.13;;;2.60;;
16824;SDS011;8529;48.108;-1.706;2022-10-16T13:15:40;14.50;;;3.42;;
16824;SDS011;8529;48.108;-1.706;2022-10-16T13:18:19;3.95;;;2.85;;
16824;SDS011;8529;48.108;-1.706;2022-10-16T13:21:00;3.70;;;2.80;;
16824;SDS011;8529;48.108;-1.706;2022-10-16T13:23:43;3.88;;;2.90;;
16824;SDS011;8529;48.108;-1.706;2022-10-16T13:26:21;4.05;;;3.05;;
16824;SDS011;8529;48.108;-1.706;2022-10-16T13:28:53;6.10;;;2.85;;
16824;SDS011;8529;48.108;-1.706;2022-10-16T13:31:26;5.57;;;3.13;;
16824;SDS011;8529;48.108;-1.706;2022-10-16T13:33:54;5.95;;;2.92;;
16824;SDS011;8529;48.108;-1.706;2022-10-16T13:36:25;3.58;;;3.13;;
16824;SDS011;8529;48.108;-1.706;2022-10-16T13:41:38;7.63;;;6.18;;
16824;SDS011;8529;48.108;-1.706;2022-10-16T13:44:09;6.72;;;4.50;;
16824;SDS011;8529;48.108;-1.706;2022-10-16T13:46:42;4.05;;;3.35;;
16824;SDS011;8529;48.108;-1.706;2022-10-16T13:49:13;5.70;;;4.22;;
16824;SDS011;8529;48.108;-1.706;2022-10-16T13:51:41;6.82;;;3.80;;
16824;SDS011;8529;48.108;-1.706;2022-10-16T13:54:20;13.90;;;11.25;;
16824;SDS011;8529;48.108;-1.706;2022-10-16T13:56:47;16.05;;;12.15;;
16824;SDS011;8529;48.108;-1.706;2022-10-16T13:59:22;5.53;;;4.80;;
16824;SDS011;8529;48.108;-1.706;2022-10-16T14:01:52;10.15;;;6.80;;
16824;SDS011;8529;48.108;-1.706;2022-10-16T14:04:20;6.03;;;4.95;;
16824;SDS011;8529;48.108;-1.706;2022-10-16T14:06:49;4.80;;;3.58;;
16824;SDS011;8529;48.108;-1.706;2022-10-16T14:09:20;11.70;;;6.30;;
16824;SDS011;8529;48.108;-1.706;2022-10-16T14:11:51;8.27;;;4.07;;
16824;SDS011;8529;48.108;-1.706;2022-10-16T14:14:20;4.97;;;3.55;;
16824;SDS011;8529;48.108;-1.706;2022-10-16T14:16:48;44.42;;;17.85;;
16824;SDS011;8529;48.108;-1.706;2022-10-16T14:19:19;18.75;;;9.82;;
16824;SDS011;8529;48.108;-1.706;2022-10-16T14:21:48;5.30;;;3.78;;
16824;SDS011;8529;48.108;-1.706;2022-10-16T14:24:23;10.68;;;4.75;;
16824;SDS011;8529;48.108;-1.706;2022-10-16T14:26:53;10.98;;;4.47;;
16824;SDS011;8529;48.108;-1.706;2022-10-16T14:29:21;16.55;;;8.68;;
16824;SDS011;8529;48.108;-1.706;2022-10-16T14:31:56;6.35;;;3.90;;
16824;SDS011;8529;48.108;-1.706;2022-10-16T14:34:27;12.70;;;6.68;;
16824;SDS011;8529;48.108;-1.706;2022-10-16T14:36:56;4.70;;;2.88;;
16824;SDS011;8529;48.108;-1.706;2022-10-16T14:39:27;21.33;;;7.60;;
16824;SDS011;8529;48.108;-1.706;2022-10-16T14:41:55;3.08;;;2.10;;
16824;SDS011;8529;48.108;-1.706;2022-10-16T14:44:26;2.70;;;2.33;;
16824;SDS011;8529;48.108;-1.706;2022-10-16T14:46:55;8.93;;;3.03;;
16824;SDS011;8529;48.108;-1.706;2022-10-16T14:49:24;3.85;;;2.42;;
16824;SDS011;8529;48.108;-1.706;2022-10-16T14:51:54;3.10;;;2.40;;
16824;SDS011;8529;48.108;-1.706;2022-10-16T14:54:21;6.60;;;3.13;;
16824;SDS011;8529;48.108;-1.706;2022-10-16T14:56:49;2.85;;;2.53;;
16824;SDS011;8529;48.108;-1.706;2022-10-16T14:59:19;4.10;;;2.80;;
16824;SDS011;8529;48.108;-1.706;2022-10-16T15:01:51;3.15;;;2.58;;
16824;SDS011;8529;48.108;-1.706;2022-10-16T15:04:18;3.38;;;2.10;;
16824;SDS011;8529;48.108;-1.706;2022-10-16T15:06:46;2.67;;;2.38;;
16824;SDS011;8529;48.108;-1.706;2022-10-16T15:09:13;2.70;;;2.20;;
16824;SDS011;8529;48.108;-1.706;2022-10-16T15:11:41;2.35;;;1.90;;
16824;SDS011;8529;48.108;-1.706;2022-10-16T15:14:09;3.70;;;2.50;;
16824;SDS011;8529;48.108;-1.706;2022-10-16T15:16:37;4.75;;;3.30;;